Flight Track Log - Related Links

Times and Time Zones

All times are in EDT time to prevent confusion due to time zone crossing. See the N1AP flight status page for this flight to view local times or setup timezone preferences in your user account.

Time Position Orientation Groundspeed Altitude Reporting Facility
EDT Latitude Longitude Course Direction KTS MPH feet Rate Location/Type
Wed 11:41:35 PM 42.4667 -71.3500 217° Southwest 208 239 3,100  Level KA90
Wed 11:43:56 PM 42.3586 -71.4594 217° Southwest 226 260 11,400 3,463 Climbing Boston Center
Wed 11:44:56 PM 42.3492 -71.5664 263° West 248 285 14,700 3,500 Climbing Boston Center
Wed 11:45:56 PM 42.3436 -71.6789 266° West 298 343 18,400 3,000 Climbing Boston Center
Wed 11:46:56 PM 42.3381 -71.7914 266° West 303 349 20,700 2,400 Climbing Boston Center
Wed 11:47:56 PM 42.3283 -71.9094 264° West 313 360 23,200 2,400 Climbing Boston Center
Wed 11:48:56 PM 42.3225 -72.0358 266° West 323 372 25,500 2,250 Climbing Boston Center
Wed 11:49:56 PM 42.3125 -72.1650 264° West 343 395 27,700 2,200 Climbing Boston Center
Wed 11:50:56 PM 42.3044 -72.3025 266° West 355 409 29,900 2,250 Climbing Boston Center
Wed 11:51:56 PM 42.2942 -72.4400 264° West 367 422 32,200 2,200 Climbing Boston Center
Wed 11:52:56 PM 42.2836 -72.5803 264° West 377 434 34,300 2,000 Climbing Boston Center
Wed 11:53:56 PM 42.2728 -72.7292 264° West 390 449 36,200 1,850 Climbing Boston Center
Wed 11:54:56 PM 42.2619 -72.8778 264° West 396 456 38,000 900 Climbing Boston Center
Wed 11:55:56 PM 42.2508 -73.0403 265° West 411 473 38,000  Level Boston Center
Wed 11:56:56 PM 42.2417 -73.1747 265° West 435 501 38,000  Level Boston Center
Wed 11:57:56 PM 42.2278 -73.3569 264° West 449 517 38,000  Level Boston Center
Wed 11:58:56 PM 42.2203 -73.5139 266° West 443 510 38,000  Level Boston Center
Wed 11:59:56 PM 42.2061 -73.6789 263° West 443 510 38,000  Level Boston Center
Thu 12:00:56 AM 42.1894 -73.8494 263° West 448 516 38,000  Level Boston Center
Thu 12:01:56 AM 42.1769 -74.0117 264° West 448 516 38,000  Level Boston Center
Thu 12:02:56 AM 42.1642 -74.1767 264° West 443 510 38,000  Level Boston Center
Thu 12:03:56 AM 42.1511 -74.3386 264° West 443 510 38,000  Level Boston Center
Thu 12:05:44 AM 42.1272 -74.6269 264° West 426 490 38,000  Level New York Center
Thu 12:06:41 AM 42.1114 -74.7936 263° West 445 512 38,000  Level New York Center
Thu 12:07:42 AM 42.0947 -74.9744 263° West 450 518 38,000  Level New York Center
Thu 12:08:41 AM 42.0803 -75.1411 263° West 450 518 38,000  Level New York Center
Thu 12:09:43 AM 42.0636 -75.3047 262° West 450 518 38,000  Level New York Center
Thu 12:10:41 AM 42.0344 -75.4675 256° West 450 518 38,000  Level New York Center
Thu 12:11:41 AM 42.0031 -75.6269 255° West 450 518 38,000  Level New York Center
Thu 12:12:41 AM 41.9714 -75.7892 255° West 450 518 38,000  Level New York Center
Thu 12:13:41 AM 41.9375 -75.9511 254° West 450 518 38,000  Level New York Center
Thu 12:14:41 AM 41.9056 -76.1075 255° West 450 518 38,000  Level New York Center
Thu 12:15:43 AM 41.8525 -76.2647 246° West 450 518 38,000  Level New York Center
Thu 12:16:41 AM 41.7825 -76.3842 232° Southwest 456 525 38,000  Level New York Center
Thu 12:17:42 AM 41.6983 -76.5328 233° Southwest 461 531 38,000  Level New York Center
Thu 12:18:43 AM 41.6206 -76.6703 233° Southwest 466 536 38,000  Level New York Center
Thu 12:19:41 AM 41.5481 -76.7886 231° Southwest 471 542 38,000  Level New York Center
Thu 12:20:42 AM 41.4844 -76.9297 239° Southwest 460 529 38,000 -98 Level New York Center
Thu 12:21:44 AM 41.4142 -77.0783 238° Southwest 460 529 37,800 -605 Descending New York Center
Thu 12:22:41 AM 41.3461 -77.2239 238° Southwest 465 535 36,800 -1,030 Descending New York Center
Thu 12:24:33 AM 41.2178 -77.4914 238° Southwest 456 525 34,900 -1,012 Descending Cleveland Center
Thu 12:25:33 AM 41.1486 -77.6381 238° Southwest 462 532 33,900 -1,000 Descending Cleveland Center
Thu 12:26:33 AM 41.0772 -77.7844 237° Southwest 467 537 32,900 -1,000 Descending Cleveland Center
Thu 12:27:33 AM 41.0058 -77.9306 237° Southwest 472 543 31,900 -1,000 Descending Cleveland Center
Thu 12:28:33 AM 40.9383 -78.0817 239° Southwest 478 550 30,900 -1,150 Descending Cleveland Center
Thu 12:29:33 AM 40.8664 -78.2328 238° Southwest 489 563 29,600 -9,450 Descending Cleveland Center
Thu 12:30:33 AM 40.8006 -78.3778 239° Southwest 489 563 12,000 -3,900 Descending Cleveland Center
Thu 12:31:33 AM 40.7322 -78.5144 237° Southwest 475 547 21,800 3,350 Climbing Cleveland Center
Thu 12:32:33 AM 40.6739 -78.6367 238° Southwest 437 503 18,700 -3,100 Descending Cleveland Center
Thu 12:33:33 AM 40.6236 -78.7531 240° Southwest 400 460 15,600 -3,050 Descending Cleveland Center
Thu 12:34:33 AM 40.5794 -78.8608 242° Southwest 364 419 12,600 -2,900 Descending Cleveland Center
Thu 12:35:33 AM 40.5392 -78.9603 242° Southwest 332 382 9,800 -2,600 Descending Cleveland Center
Thu 12:36:33 AM 40.5050 -79.0431 242° Southwest 296 341 7,400 -2,350 Descending Cleveland Center
Thu 12:37:33 AM 40.4725 -79.1203 241° Southwest 263 303 5,100 -2,300 Descending Cleveland Center

Login

Don't have an account? Register now (free) for customized features, flight alerts, and more!